createdAt,value
2023-02-19T00:02:55.923Z,99228.26
2023-02-19T00:07:58.406Z,99221.63
2023-02-19T00:13:00.882Z,99224.98
2023-02-19T00:18:03.474Z,99233.53
2023-02-19T00:23:06.014Z,99229.86
2023-02-19T00:28:08.478Z,99236.27
2023-02-19T00:33:11.138Z,99236.48
2023-02-19T00:38:13.632Z,99239.11
2023-02-19T00:43:16.156Z,99235.38
2023-02-19T00:48:18.650Z,99236.64
2023-02-19T00:53:21.129Z,99233.95
2023-02-19T00:58:23.670Z,99236.06
2023-02-19T01:03:26.745Z,99251.21
2023-02-19T01:08:31.165Z,99259.15
2023-02-19T01:13:34.286Z,99264.83
2023-02-19T01:18:36.896Z,99257.41
2023-02-19T01:23:40.008Z,99258.90
2023-02-19T01:28:43.193Z,99258.70
2023-02-19T01:33:51.512Z,99252.34
2023-02-19T01:38:54.693Z,99249.77
2023-02-19T01:44:01.126Z,99249.55
2023-02-19T01:49:09.719Z,99246.36
2023-02-19T01:54:15.995Z,99243.86
2023-02-19T01:59:18.836Z,99243.61
2023-02-19T02:04:21.359Z,99249.05
2023-02-19T02:09:30.852Z,99249.30
2023-02-19T02:14:37.271Z,99243.16
2023-02-19T02:19:45.647Z,99240.63
2023-02-19T02:24:56.524Z,99231.93
2023-02-19T02:30:02.108Z,99233.84
2023-02-19T02:35:09.186Z,99240.58
2023-02-19T02:40:12.185Z,99244.44
2023-02-19T02:45:20.495Z,99257.04
2023-02-19T02:50:27.437Z,99258.13
2023-02-19T02:55:34.450Z,99250.47
2023-02-19T03:00:42.004Z,99243.82
2023-02-19T03:05:49.070Z,99242.38
2023-02-19T03:10:59.438Z,99239.08
2023-02-19T03:16:18.106Z,99240.36
2023-02-19T03:21:23.267Z,99242.28
2023-02-19T03:26:26.463Z,99233.81
2023-02-19T03:31:32.126Z,99237.79
2023-02-19T03:36:44.007Z,99239.51
2023-02-19T03:41:56.141Z,99236.20
2023-02-19T03:47:04.811Z,99235.00
2023-02-19T03:52:30.104Z,99236.98
2023-02-19T03:57:46.344Z,99234.89
2023-02-19T04:02:53.656Z,99232.44
2023-02-19T04:08:03.465Z,99229.28
2023-02-19T04:13:13.306Z,99229.04
2023-02-19T04:18:20.248Z,99225.35
2023-02-19T04:23:26.908Z,99225.80
2023-02-19T04:28:29.860Z,99227.34
2023-02-19T04:33:32.351Z,99222.90
2023-02-19T04:38:34.854Z,99222.25
2023-02-19T04:43:37.328Z,99223.12
2023-02-19T04:48:42.920Z,99217.34
2023-02-19T04:53:45.380Z,99218.35
2023-02-19T04:58:47.870Z,99212.00
2023-02-19T05:03:51.285Z,99206.10
2023-02-19T05:08:53.789Z,99211.17
2023-02-19T05:13:56.351Z,99203.33
2023-02-19T05:18:59.199Z,99207.39
2023-02-19T05:24:01.722Z,99204.91
2023-02-19T05:29:06.680Z,99204.90
2023-02-19T05:34:09.159Z,99201.13
2023-02-19T05:39:12.223Z,99202.66
2023-02-19T05:44:16.951Z,99205.23
2023-02-19T05:49:19.534Z,99207.70
2023-02-19T05:54:22.046Z,99214.96
2023-02-19T05:59:26.305Z,99211.03
2023-02-19T06:04:28.873Z,99217.84
2023-02-19T06:09:32.260Z,99217.83
2023-02-19T06:14:34.772Z,99223.84
2023-02-19T06:19:37.314Z,99225.67
2023-02-19T06:24:39.905Z,99233.48
2023-02-19T06:29:42.508Z,99236.48
2023-02-19T06:34:45.038Z,99245.43
2023-02-19T06:39:47.543Z,99249.17
2023-02-19T06:44:50.030Z,99254.80
2023-02-19T06:49:52.557Z,99256.20
2023-02-19T06:54:55.045Z,99261.67
2023-02-19T06:59:57.566Z,99263.81
2023-02-19T07:05:00.118Z,99269.24
2023-02-19T07:10:02.708Z,99274.84
2023-02-19T07:15:05.430Z,99278.12
2023-02-19T07:20:08.259Z,99286.04
2023-02-19T07:25:10.787Z,99293.50
2023-02-19T07:30:15.556Z,99299.63
2023-02-19T07:35:18.083Z,99305.55
2023-02-19T07:40:20.846Z,99313.59
2023-02-19T07:45:23.421Z,99317.73
2023-02-19T07:50:25.958Z,99321.57
2023-02-19T07:55:30.602Z,99323.61
2023-02-19T08:00:33.114Z,99324.56
2023-02-19T08:05:38.356Z,99324.13
2023-02-19T08:10:44.015Z,99334.00
2023-02-19T08:15:47.237Z,99336.04
2023-02-19T08:20:50.184Z,99348.56
2023-02-19T08:25:53.695Z,99359.27
2023-02-19T08:31:01.751Z,99360.91
2023-02-19T08:36:06.521Z,99359.21
2023-02-19T08:41:12.701Z,99361.48
2023-02-19T08:46:15.427Z,99370.83
2023-02-19T08:51:17.989Z,99376.27
2023-02-19T08:56:20.510Z,99381.94
2023-02-19T09:01:23.777Z,99380.91
2023-02-19T09:06:28.583Z,99391.55
2023-02-19T09:11:31.097Z,99398.91
2023-02-19T09:16:34.891Z,99399.03
2023-02-19T09:21:37.423Z,99396.16
2023-02-19T09:26:40.010Z,99406.23
2023-02-19T09:31:42.647Z,99408.92
2023-02-19T09:36:48.257Z,99411.48
2023-02-19T09:41:56.070Z,99417.05
2023-02-19T09:47:01.077Z,99413.69
2023-02-19T09:52:12.716Z,99422.99
2023-02-19T09:57:18.560Z,99433.09
2023-02-19T10:02:22.645Z,99437.33
2023-02-19T10:07:31.644Z,99435.71
2023-02-19T10:12:36.586Z,99440.15
2023-02-19T10:17:39.088Z,99442.45
2023-02-19T10:22:41.713Z,99453.41
2023-02-19T10:27:44.449Z,99464.90
2023-02-19T10:33:11.028Z,99464.58
2023-02-19T10:38:15.876Z,99461.73
2023-02-19T10:43:31.120Z,99469.73
2023-02-19T10:48:38.256Z,99460.65
2023-02-19T10:53:40.794Z,99471.28
2023-02-19T10:58:44.923Z,99467.89
2023-02-19T11:03:51.489Z,99470.38
2023-02-19T11:08:58.696Z,99467.86
2023-02-19T11:14:13.654Z,99475.02
2023-02-19T11:19:23.526Z,99481.64
2023-02-19T11:24:28.935Z,99480.55
2023-02-19T11:29:34.818Z,99487.02
2023-02-19T11:34:37.362Z,99494.88
2023-02-19T11:39:43.133Z,99502.29
2023-02-19T11:44:50.619Z,99501.20
2023-02-19T11:49:58.934Z,99507.83
2023-02-19T11:55:04.330Z,99511.95
2023-02-19T12:00:11.728Z,99522.79
2023-02-19T12:05:20.108Z,99519.06
2023-02-19T12:10:28.669Z,99521.71
2023-02-19T12:15:39.791Z,99526.00
2023-02-19T12:20:48.120Z,99528.52
2023-02-19T12:25:57.901Z,99536.78
2023-02-19T12:31:06.446Z,99542.67
2023-02-19T12:36:15.968Z,99541.66
2023-02-19T12:41:28.117Z,99552.02
2023-02-19T12:46:36.109Z,99550.68
2023-02-19T12:51:46.617Z,99546.75
2023-02-19T12:56:56.519Z,99555.91
2023-02-19T13:02:10.689Z,99555.64
2023-02-19T13:07:16.181Z,99567.77
2023-02-19T13:12:26.199Z,99580.46
2023-02-19T13:17:36.928Z,99580.02
2023-02-19T13:22:57.521Z,99578.52
2023-02-19T13:28:12.950Z,99586.44
2023-02-19T13:33:30.483Z,99588.90
2023-02-19T13:38:42.066Z,99586.40
2023-02-19T13:43:46.839Z,99587.16
2023-02-19T13:49:12.163Z,99586.45
2023-02-19T13:54:28.783Z,99591.89
2023-02-19T13:59:36.321Z,99594.11
2023-02-19T14:04:42.770Z,99605.02
2023-02-19T14:09:48.489Z,99608.23
2023-02-19T14:14:53.082Z,99616.63
2023-02-19T14:20:01.610Z,99619.64
2023-02-19T14:25:14.549Z,99625.77
2023-02-19T14:30:18.037Z,99625.02
2023-02-19T14:35:24.059Z,99629.78
2023-02-19T14:40:37.904Z,99631.27
2023-02-19T14:45:45.250Z,99645.64
2023-02-19T14:50:50.782Z,99646.15
2023-02-19T14:55:55.596Z,99649.91
2023-02-19T15:01:09.479Z,99661.36
2023-02-19T15:06:17.423Z,99669.19
2023-02-19T15:11:23.542Z,99671.06
2023-02-19T15:16:28.723Z,99674.10
2023-02-19T15:21:33.088Z,99675.02
2023-02-19T15:26:41.056Z,99678.48
2023-02-19T15:31:50.160Z,99687.30
2023-02-19T15:37:01.738Z,99702.72
2023-02-19T15:42:06.555Z,99716.25
2023-02-19T15:47:14.248Z,99722.70
2023-02-19T15:52:27.320Z,99735.83
2023-02-19T15:57:35.783Z,99740.00
2023-02-19T16:02:39.140Z,99751.61
2023-02-19T16:07:43.528Z,99754.39
2023-02-19T16:12:51.831Z,99759.71
2023-02-19T16:17:55.337Z,99765.20
2023-02-19T16:23:02.665Z,99768.08
2023-02-19T16:28:10.977Z,99782.81
2023-02-19T16:33:19.322Z,99790.69
2023-02-19T16:38:21.822Z,99788.06
2023-02-19T16:43:26.045Z,99794.52
2023-02-19T16:48:30.901Z,99797.38
2023-02-19T16:53:33.701Z,99794.19
2023-02-19T16:58:38.791Z,99809.20
2023-02-19T17:03:42.713Z,99817.01
2023-02-19T17:08:45.379Z,99824.09
2023-02-19T17:13:47.952Z,99834.77
2023-02-19T17:18:51.133Z,99846.67
2023-02-19T17:23:54.065Z,99854.44
2023-02-19T17:28:58.702Z,99850.16
2023-02-19T17:34:01.538Z,99853.07
2023-02-19T17:39:07.053Z,99851.16
2023-02-19T17:44:10.126Z,99852.88
2023-02-19T17:49:13.352Z,99850.66
2023-02-19T17:54:18.259Z,99854.45
2023-02-19T17:59:22.861Z,99857.04
2023-02-19T18:04:25.347Z,99860.31
2023-02-19T18:09:29.828Z,99870.45
2023-02-19T18:14:32.369Z,99876.63
2023-02-19T18:19:34.957Z,99878.70
2023-02-19T18:24:37.527Z,99884.55
2023-02-19T18:29:40.399Z,99886.11
2023-02-19T18:34:42.926Z,99883.87
2023-02-19T18:39:45.822Z,99884.88
2023-02-19T18:44:49.590Z,99876.80
2023-02-19T18:49:54.667Z,99890.70
2023-02-19T18:54:57.331Z,99890.37
2023-02-19T18:59:59.812Z,99901.02
2023-02-19T19:05:02.373Z,99906.02
2023-02-19T19:10:06.166Z,99908.77
2023-02-19T19:15:09.070Z,99902.92
2023-02-19T19:20:11.943Z,99894.34
2023-02-19T19:25:15.125Z,99891.08
2023-02-19T19:30:19.831Z,99884.57
2023-02-19T19:35:22.818Z,99878.55
2023-02-19T19:40:25.402Z,99882.99
2023-02-19T19:45:27.968Z,99893.27
2023-02-19T19:50:30.598Z,99888.77
2023-02-19T19:55:33.086Z,99870.37
2023-02-19T20:00:35.787Z,99870.38
2023-02-19T20:05:38.265Z,99875.01
2023-02-19T20:10:40.948Z,99874.50
2023-02-19T20:15:43.698Z,99886.70
2023-02-19T20:20:46.325Z,99893.56
2023-02-19T20:25:48.876Z,99897.14
2023-02-19T20:30:51.409Z,99905.68
2023-02-19T20:35:54.054Z,99901.35
2023-02-19T20:40:58.158Z,99900.48
2023-02-19T20:46:01.105Z,99908.40
2023-02-19T20:51:03.798Z,99910.98
2023-02-19T20:56:06.597Z,99900.62
2023-02-19T21:01:11.473Z,99898.35
2023-02-19T21:06:14.238Z,99900.40
2023-02-19T21:11:16.907Z,99897.66
2023-02-19T21:16:19.403Z,99898.16
2023-02-19T21:21:25.289Z,99898.48
2023-02-19T21:26:33.358Z,99895.41
2023-02-19T21:31:41.934Z,99898.08
2023-02-19T21:36:46.696Z,99897.95
2023-02-19T21:41:49.641Z,99895.08
2023-02-19T21:46:52.143Z,99889.27
2023-02-19T21:51:54.633Z,99886.36
2023-02-19T21:56:57.183Z,99878.96
2023-02-19T22:01:59.843Z,99875.18
2023-02-19T22:07:02.377Z,99880.14
2023-02-19T22:12:05.177Z,99871.89
2023-02-19T22:17:07.664Z,99874.45
2023-02-19T22:22:10.748Z,99871.69
2023-02-19T22:27:13.305Z,99879.59
2023-02-19T22:32:16.511Z,99881.48
2023-02-19T22:37:19.218Z,99872.86
2023-02-19T22:42:21.818Z,99863.39
2023-02-19T22:47:25.468Z,99868.38
2023-02-19T22:52:30.581Z,99865.12
2023-02-19T22:57:33.928Z,99862.37
2023-02-19T23:02:36.619Z,99862.23
2023-02-19T23:07:42.604Z,99858.45
2023-02-19T23:12:45.098Z,99850.92
2023-02-19T23:17:47.637Z,99846.29
2023-02-19T23:22:50.361Z,99836.48
2023-02-19T23:27:53.057Z,99839.23
2023-02-19T23:32:55.559Z,99838.02
2023-02-19T23:37:58.053Z,99834.05
2023-02-19T23:43:03.900Z,99834.05
2023-02-19T23:48:08.885Z,99831.63
2023-02-19T23:53:11.506Z,99831.81
2023-02-19T23:58:14.172Z,99833.02
